createdAt,value
2019-04-23T00:01:29.541Z,11.50
2019-04-23T00:04:01.087Z,11.77
2019-04-23T00:09:08.532Z,12.83
2019-04-23T00:11:34.011Z,12.93
2019-04-23T00:14:07.097Z,12.60
2019-04-23T00:16:42.562Z,12.90
2019-04-23T00:19:10.303Z,9.70
2019-04-23T00:22:05.602Z,11.47
2019-04-23T00:25:25.310Z,10.23
2019-04-23T00:30:12.989Z,10.97
2019-04-23T00:32:46.210Z,14.37
2019-04-23T00:35:16.074Z,10.33
2019-04-23T00:38:06.550Z,9.30
2019-04-23T00:40:19.031Z,11.43
2019-04-23T00:43:09.881Z,11.70
2019-04-23T00:45:24.597Z,14.10
2019-04-23T00:47:57.643Z,12.77
2019-04-23T00:50:46.511Z,10.57
2019-04-23T00:53:01.943Z,11.77
2019-04-23T00:55:35.616Z,10.27
2019-04-23T00:58:06.235Z,13.70
2019-04-23T01:00:35.381Z,11.83
2019-04-23T01:03:06.102Z,13.83
2019-04-23T01:05:35.231Z,11.10
2019-04-23T01:08:08.335Z,12.90
2019-04-23T01:10:50.804Z,13.00
2019-04-23T01:13:14.884Z,10.90
2019-04-23T01:15:46.769Z,11.73
2019-04-23T01:18:32.636Z,13.73
2019-04-23T01:20:52.920Z,10.13
2019-04-23T01:23:40.403Z,13.17
2019-04-23T01:26:26.499Z,12.90
2019-04-23T01:29:01.715Z,10.60
2019-04-23T01:31:33.137Z,14.47
2019-04-23T01:34:03.069Z,11.83
2019-04-23T01:36:36.117Z,12.63
2019-04-23T01:39:14.514Z,11.50
2019-04-23T01:41:41.480Z,13.03
2019-04-23T01:44:14.268Z,15.03
2019-04-23T01:46:51.049Z,13.70
2019-04-23T01:49:18.354Z,11.27
2019-04-23T01:51:46.866Z,13.63
2019-04-23T01:54:18.858Z,9.93
2019-04-23T01:56:38.553Z,14.30
2019-04-23T01:59:24.785Z,14.27
2019-04-23T02:01:58.846Z,11.47
2019-04-23T02:04:28.430Z,11.67
2019-04-23T02:06:57.988Z,10.63
2019-04-23T02:09:37.272Z,12.57
2019-04-23T02:12:11.233Z,11.30
2019-04-23T02:14:43.294Z,15.33
2019-04-23T02:17:18.784Z,10.90
2019-04-23T02:19:46.154Z,11.73
2019-04-23T02:22:38.943Z,11.23
2019-04-23T02:28:04.765Z,15.73
2019-04-23T02:33:21.062Z,13.23
2019-04-23T02:40:54.854Z,14.73
2019-04-23T02:43:18.434Z,17.97
2019-04-23T02:45:56.398Z,9.97
2019-04-23T02:50:48.306Z,12.50
2019-04-23T03:03:42.863Z,12.67
2019-04-23T03:06:10.104Z,12.47
2019-04-23T03:08:46.633Z,14.17
2019-04-23T03:13:53.608Z,12.57
2019-04-23T03:19:02.580Z,14.67
2019-04-23T03:21:54.391Z,13.20
2019-04-23T03:42:17.760Z,13.97
2019-04-23T03:45:00.665Z,11.53
2019-04-23T03:47:26.794Z,10.93
2019-04-23T03:49:55.715Z,11.43
2019-04-23T03:52:27.679Z,10.00
2019-04-23T03:57:24.765Z,12.23
2019-04-23T04:05:07.389Z,11.90
2019-04-23T04:09:59.473Z,11.80
2019-04-23T04:12:35.701Z,14.73
2019-04-23T04:17:35.963Z,10.07
2019-04-23T04:20:19.872Z,11.20
2019-04-23T04:22:54.465Z,12.03
2019-04-23T04:25:15.906Z,12.57
2019-04-23T04:27:58.822Z,16.87
2019-04-23T04:30:21.519Z,12.80
2019-04-23T04:32:52.459Z,12.13
2019-04-23T04:37:52.810Z,14.27
2019-04-23T04:43:11.310Z,13.10
2019-04-23T04:47:44.503Z,11.50
2019-04-23T04:50:14.933Z,10.23
2019-04-23T04:52:58.002Z,9.90
2019-04-23T04:55:28.349Z,14.27
2019-04-23T04:57:58.242Z,10.40
2019-04-23T05:08:11.454Z,9.83
2019-04-23T05:10:44.116Z,10.67
2019-04-23T05:13:22.259Z,12.07
2019-04-23T05:19:19.881Z,12.80
2019-04-23T05:21:30.532Z,10.60
2019-04-23T05:23:42.776Z,10.47
2019-04-23T05:33:59.878Z,9.10
2019-04-23T05:41:30.407Z,10.07
2019-04-23T05:46:43.369Z,12.83
2019-04-23T05:49:08.546Z,11.27
2019-04-23T05:51:48.633Z,12.70
2019-04-23T05:54:08.467Z,11.30
2019-04-23T05:59:14.410Z,10.63
2019-04-23T06:01:53.968Z,11.10
2019-04-23T06:04:24.597Z,16.10
2019-04-23T06:06:55.779Z,10.80
2019-04-23T06:09:20.876Z,13.57
2019-04-23T06:11:56.953Z,11.67
2019-04-23T06:14:25.113Z,11.57
2019-04-23T06:16:57.473Z,11.37
2019-04-23T06:19:21.079Z,9.80
2019-04-23T06:22:17.314Z,13.43
2019-04-23T06:27:01.237Z,9.57
2019-04-23T06:29:35.168Z,12.93
2019-04-23T06:32:13.224Z,12.67
2019-04-23T06:37:02.003Z,10.50
2019-04-23T06:39:39.653Z,13.00
2019-04-23T06:42:05.984Z,12.97
2019-04-23T06:44:45.501Z,12.40
2019-04-23T06:47:13.272Z,11.27
2019-04-23T06:50:00.182Z,10.23
2019-04-23T06:55:09.057Z,12.03
2019-04-23T06:57:22.420Z,10.23
2019-04-23T06:59:54.651Z,8.53
2019-04-23T07:02:30.565Z,11.63
2019-04-23T07:05:03.429Z,16.33
2019-04-23T07:07:46.567Z,13.57
2019-04-23T07:09:58.088Z,12.97
2019-04-23T07:12:36.514Z,12.50
2019-04-23T07:15:13.270Z,12.77
2019-04-23T07:17:31.045Z,12.00
2019-04-23T07:20:00.214Z,13.47
2019-04-23T07:22:26.744Z,14.17
2019-04-23T07:27:31.767Z,10.33
2019-04-23T07:30:20.974Z,14.27
2019-04-23T07:32:44.701Z,14.27
2019-04-23T07:35:24.702Z,13.03
2019-04-23T07:37:47.497Z,13.50
2019-04-23T07:40:27.107Z,12.03
2019-04-23T07:45:45.728Z,9.60
2019-04-23T07:48:23.888Z,9.80
2019-04-23T07:50:49.380Z,11.57
2019-04-23T07:55:58.942Z,11.00
2019-04-23T08:08:24.441Z,13.50
2019-04-23T08:11:28.869Z,17.60
2019-04-23T08:13:47.609Z,11.47
2019-04-23T08:16:23.374Z,20.00
2019-04-23T08:21:19.249Z,11.07
2019-04-23T08:24:01.646Z,27.33
2019-04-23T08:29:28.097Z,23.93
2019-04-23T08:32:06.922Z,16.77
2019-04-23T08:34:48.386Z,11.87
2019-04-23T08:37:09.027Z,22.33
2019-04-23T08:42:33.361Z,14.67
2019-04-23T08:45:09.209Z,13.63
2019-04-23T08:48:04.114Z,13.40
2019-04-23T08:50:18.188Z,15.57
2019-04-23T08:52:44.509Z,20.10
2019-04-23T08:55:13.815Z,17.40
2019-04-23T08:57:36.614Z,12.07
2019-04-23T09:00:14.185Z,14.03
2019-04-23T09:02:54.269Z,13.13
2019-04-23T09:05:23.553Z,13.77
2019-04-23T09:10:26.375Z,15.57
2019-04-23T09:13:09.556Z,14.97
2019-04-23T09:15:36.010Z,12.07
2019-04-23T09:18:04.231Z,12.33
2019-04-23T09:20:29.441Z,11.53
2019-04-23T09:22:50.073Z,14.17
2019-04-23T09:25:36.813Z,11.63
2019-04-23T09:27:59.751Z,11.67
2019-04-23T09:30:32.553Z,11.57
2019-04-23T09:33:46.829Z,10.67
2019-04-23T09:36:23.837Z,12.30
2019-04-23T09:39:12.821Z,10.30
2019-04-23T09:42:04.042Z,10.73
2019-04-23T09:44:56.594Z,15.07
2019-04-23T09:47:37.136Z,20.80
2019-04-23T09:50:10.754Z,11.77
2019-04-23T09:52:48.811Z,9.70
2019-04-23T09:55:22.142Z,9.77
2019-04-23T09:57:53.316Z,12.77
2019-04-23T10:00:37.995Z,9.87
2019-04-23T10:02:44.809Z,10.20
2019-04-23T10:05:07.348Z,16.10
2019-04-23T10:07:38.383Z,16.73
2019-04-23T10:09:57.467Z,10.27
2019-04-23T10:12:28.027Z,13.37
2019-04-23T10:15:08.084Z,9.37
2019-04-23T10:17:29.295Z,13.67
2019-04-23T10:20:00.537Z,10.57
2019-04-23T10:22:32.239Z,16.90
2019-04-23T10:25:01.317Z,15.30
2019-04-23T10:27:30.423Z,9.47
2019-04-23T10:30:01.732Z,9.07
2019-04-23T10:32:31.704Z,8.47
2019-04-23T10:35:14.645Z,13.13
2019-04-23T10:37:46.094Z,9.57
2019-04-23T10:40:07.987Z,13.13
2019-04-23T10:42:40.338Z,10.97
2019-04-23T10:45:39.645Z,8.67
2019-04-23T10:49:11.049Z,7.73
2019-04-23T10:51:25.898Z,11.13
2019-04-23T10:54:15.803Z,9.03
2019-04-23T10:59:06.413Z,10.00
2019-04-23T11:01:41.387Z,9.37
2019-04-23T11:04:21.427Z,8.17
2019-04-23T11:06:45.099Z,16.37
2019-04-23T11:09:27.759Z,13.73
2019-04-23T11:11:52.592Z,11.17
2019-04-23T11:14:25.451Z,10.53
2019-04-23T11:16:59.884Z,8.13
2019-04-23T11:19:38.058Z,14.37
2019-04-23T11:22:04.303Z,7.53
2019-04-23T11:24:36.151Z,7.97
2019-04-23T11:27:06.503Z,8.33
2019-04-23T11:29:44.366Z,7.77
2019-04-23T11:32:23.853Z,10.40
2019-04-23T11:34:57.030Z,10.67
2019-04-23T11:37:12.387Z,8.03
2019-04-23T11:42:14.441Z,10.93
2019-04-23T11:44:41.520Z,8.20
2019-04-23T11:47:32.769Z,8.67
2019-04-23T11:52:31.653Z,9.17
2019-04-23T11:54:45.370Z,13.20
2019-04-23T11:57:34.492Z,9.17
2019-04-23T12:02:47.988Z,10.77
2019-04-23T12:05:33.025Z,10.23
2019-04-23T12:08:21.188Z,8.47
2019-04-23T12:11:00.476Z,11.93
2019-04-23T12:13:26.901Z,8.13
2019-04-23T12:18:43.381Z,10.27
2019-04-23T12:21:15.922Z,12.10
2019-04-23T12:23:49.867Z,13.70
2019-04-23T12:26:20.917Z,11.83
2019-04-23T12:28:44.166Z,9.37
2019-04-23T12:31:23.550Z,11.70
2019-04-23T12:33:53.615Z,10.30
2019-04-23T12:39:27.097Z,14.03
2019-04-23T12:42:11.180Z,11.10
2019-04-23T12:44:31.508Z,10.57
2019-04-23T12:47:09.057Z,9.90
2019-04-23T12:52:12.672Z,12.70
2019-04-23T12:57:30.066Z,15.27
2019-04-23T13:02:29.195Z,9.30
2019-04-23T13:04:48.678Z,9.13
2019-04-23T13:07:36.932Z,7.97
2019-04-23T13:09:58.168Z,14.30
2019-04-23T13:12:50.346Z,13.40
2019-04-23T13:15:02.766Z,16.73
2019-04-23T13:20:15.183Z,10.47
2019-04-23T13:22:39.849Z,11.80
2019-04-23T13:25:33.433Z,16.30
2019-04-23T13:28:06.879Z,12.30
2019-04-23T13:30:46.094Z,18.87
2019-04-23T13:35:55.234Z,9.77
2019-04-23T13:38:09.858Z,18.60
2019-04-23T13:40:40.632Z,13.30
2019-04-23T13:43:31.810Z,11.13
2019-04-23T13:48:10.700Z,16.03
2019-04-23T13:53:25.364Z,18.07
2019-04-23T13:55:42.956Z,14.63
2019-04-23T13:58:22.376Z,12.20
2019-04-23T14:03:30.759Z,15.80
2019-04-23T14:06:18.171Z,14.27
2019-04-23T14:11:19.413Z,13.43
2019-04-23T14:16:28.620Z,11.83
2019-04-23T14:21:25.210Z,26.23
2019-04-23T14:24:08.346Z,19.80
2019-04-23T14:28:55.287Z,15.73
2019-04-23T14:31:35.942Z,14.50
2019-04-23T14:34:04.870Z,13.00
2019-04-23T14:36:39.640Z,11.47
2019-04-23T14:39:11.320Z,13.33
2019-04-23T14:49:19.190Z,15.43
2019-04-23T14:52:00.349Z,13.03
2019-04-23T14:55:06.235Z,12.10
2019-04-23T14:57:07.851Z,16.57
2019-04-23T14:59:19.785Z,17.07
2019-04-23T15:04:33.635Z,17.60
2019-04-23T15:07:13.238Z,19.17
2019-04-23T15:09:34.175Z,21.27
2019-04-23T15:12:17.305Z,19.53
2019-04-23T15:14:48.727Z,14.80
2019-04-23T15:17:13.207Z,13.23
2019-04-23T15:19:55.080Z,14.93
2019-04-23T15:22:30.379Z,14.33
2019-04-23T15:25:19.315Z,11.30
2019-04-23T15:30:00.861Z,12.00
2019-04-23T15:33:15.448Z,14.70
2019-04-23T15:38:10.433Z,13.50
2019-04-23T15:40:15.169Z,11.33
2019-04-23T15:42:56.379Z,14.23
2019-04-23T15:45:24.197Z,14.10
2019-04-23T15:48:11.858Z,13.53
2019-04-23T15:50:40.821Z,13.63
2019-04-23T15:53:01.533Z,14.03
2019-04-23T15:55:43.604Z,17.80
2019-04-23T16:00:38.419Z,18.73
2019-04-23T16:02:43.271Z,23.30
2019-04-23T16:05:15.859Z,57.70
2019-04-23T16:08:01.714Z,85.53
2019-04-23T16:10:55.474Z,68.47
2019-04-23T16:13:27.579Z,123.43
2019-04-23T16:15:50.908Z,38.97
2019-04-23T16:18:35.264Z,30.43
2019-04-23T16:21:10.200Z,20.30
2019-04-23T16:23:38.270Z,26.50
2019-04-23T16:26:08.745Z,16.67
2019-04-23T16:28:51.114Z,16.77
2019-04-23T16:31:14.920Z,20.67
2019-04-23T16:33:51.122Z,16.20
2019-04-23T16:36:19.604Z,24.80
2019-04-23T16:38:54.964Z,14.70
2019-04-23T16:41:24.342Z,15.03
2019-04-23T16:44:01.517Z,13.33
2019-04-23T16:54:03.078Z,11.50
2019-04-23T16:56:42.015Z,13.80
2019-04-23T16:59:08.647Z,11.97
2019-04-23T17:01:27.984Z,13.10
2019-04-23T17:04:11.437Z,63.60
2019-04-23T17:06:39.745Z,38.67
2019-04-23T17:09:13.468Z,18.23
2019-04-23T17:11:55.626Z,15.57
2019-04-23T17:14:16.277Z,17.77
2019-04-23T17:16:38.612Z,14.60
2019-04-23T17:19:19.269Z,15.33
2019-04-23T17:21:44.053Z,22.40
2019-04-23T17:24:20.838Z,15.97
2019-04-23T17:29:21.334Z,26.37
2019-04-23T17:31:45.408Z,17.63
2019-04-23T17:37:17.883Z,19.27
2019-04-23T17:40:12.288Z,41.67
2019-04-23T17:42:49.620Z,23.60
2019-04-23T17:48:12.907Z,27.37
2019-04-23T17:50:52.808Z,26.10
2019-04-23T17:53:22.371Z,18.07
2019-04-23T17:55:53.436Z,21.23
2019-04-23T17:58:23.326Z,19.93
2019-04-23T18:01:03.907Z,19.07
2019-04-23T18:03:23.733Z,21.87
2019-04-23T18:06:14.200Z,20.20
2019-04-23T18:08:29.058Z,23.30
2019-04-23T18:11:05.883Z,18.10
2019-04-23T18:13:31.153Z,20.73
2019-04-23T18:16:13.868Z,15.97
2019-04-23T18:18:39.536Z,17.33
2019-04-23T18:26:46.394Z,19.70
2019-04-23T18:29:25.812Z,30.57
2019-04-23T18:32:23.277Z,32.20
2019-04-23T18:35:11.990Z,24.70
2019-04-23T18:37:23.771Z,15.33
2019-04-23T18:39:54.591Z,12.90
2019-04-23T18:42:37.141Z,25.13
2019-04-23T18:44:56.272Z,24.70
2019-04-23T18:50:02.162Z,29.57
2019-04-23T18:52:50.422Z,34.13
2019-04-23T18:55:16.473Z,17.33
2019-04-23T18:57:38.357Z,15.97
2019-04-23T19:00:16.805Z,23.97
2019-04-23T19:03:11.929Z,18.97
2019-04-23T19:05:54.202Z,17.87
2019-04-23T19:08:55.217Z,18.07
2019-04-23T19:11:25.714Z,26.30
2019-04-23T19:13:47.861Z,25.83
2019-04-23T19:16:29.841Z,20.27
2019-04-23T19:18:59.723Z,20.03
2019-04-23T19:26:52.105Z,16.20
2019-04-23T19:34:35.716Z,11.07
2019-04-23T19:42:03.799Z,12.23
2019-04-23T19:44:44.089Z,12.17
2019-04-23T19:47:09.566Z,16.33
2019-04-23T19:49:36.590Z,15.57
2019-04-23T19:52:04.836Z,29.30
2019-04-23T19:59:51.096Z,36.00
2019-04-23T20:02:44.895Z,12.37
2019-04-23T20:12:25.619Z,11.10
2019-04-23T20:14:52.113Z,9.47
2019-04-23T20:17:37.986Z,9.90
2019-04-23T20:22:34.098Z,12.07
2019-04-23T20:25:10.316Z,8.80
2019-04-23T20:30:22.965Z,10.07
2019-04-23T20:32:25.794Z,9.77
2019-04-23T20:35:33.302Z,9.63
2019-04-23T20:38:25.314Z,9.63
2019-04-23T20:40:39.677Z,7.97
2019-04-23T20:43:07.096Z,7.13
2019-04-23T20:45:53.511Z,8.43
2019-04-23T20:48:09.232Z,9.30
2019-04-23T20:50:39.238Z,7.87
2019-04-23T20:53:04.956Z,9.13
2019-04-23T20:55:53.197Z,8.67
2019-04-23T20:58:39.499Z,6.80
2019-04-23T21:04:11.676Z,9.27
2019-04-23T21:06:37.869Z,6.33
2019-04-23T21:11:53.120Z,7.80
2019-04-23T21:16:42.740Z,8.27
2019-04-23T21:19:34.115Z,7.57
2019-04-23T21:22:04.562Z,8.23
2019-04-23T21:24:35.031Z,7.87
2019-04-23T21:27:21.840Z,8.37
2019-04-23T21:32:35.530Z,9.83
2019-04-23T21:35:02.717Z,13.47
2019-04-23T21:37:49.992Z,8.73
2019-04-23T21:40:45.382Z,8.33
2019-04-23T21:43:02.782Z,7.40
2019-04-23T21:45:28.013Z,8.03
2019-04-23T21:48:02.982Z,7.57
2019-04-23T21:50:37.167Z,8.03
2019-04-23T21:52:58.231Z,7.93
2019-04-23T21:55:30.453Z,8.57
2019-04-23T22:00:38.161Z,7.97
2019-04-23T22:05:45.851Z,8.20
2019-04-23T22:08:02.507Z,7.87
2019-04-23T22:10:44.397Z,8.03
2019-04-23T22:18:06.714Z,9.23
2019-04-23T22:20:44.052Z,10.40
2019-04-23T22:23:12.642Z,8.47
2019-04-23T22:25:52.645Z,8.30
2019-04-23T22:28:12.850Z,8.47
2019-04-23T22:33:17.987Z,8.67
2019-04-23T22:35:57.929Z,9.67
2019-04-23T22:38:21.090Z,10.50
2019-04-23T22:40:58.157Z,9.33
2019-04-23T22:46:02.870Z,10.03
2019-04-23T22:49:00.786Z,12.47
2019-04-23T22:53:28.460Z,11.60
2019-04-23T22:56:01.785Z,14.80
2019-04-23T22:58:44.955Z,13.57
2019-04-23T23:01:39.739Z,13.23
2019-04-23T23:03:51.603Z,12.67
2019-04-23T23:06:17.401Z,15.20
2019-04-23T23:09:06.042Z,13.27
2019-04-23T23:11:14.045Z,13.57
2019-04-23T23:16:21.601Z,14.73
2019-04-23T23:19:07.121Z,12.73
2019-04-23T23:21:38.480Z,12.20
2019-04-23T23:23:59.555Z,13.00
2019-04-23T23:26:31.733Z,11.73
2019-04-23T23:28:55.645Z,11.17
2019-04-23T23:31:30.192Z,12.93
2019-04-23T23:34:04.451Z,12.90
2019-04-23T23:36:28.483Z,11.93
2019-04-23T23:39:05.517Z,15.00
2019-04-23T23:41:33.731Z,15.67
2019-04-23T23:44:28.459Z,13.27
2019-04-23T23:46:35.463Z,13.77
2019-04-23T23:49:02.895Z,13.33
2019-04-23T23:56:40.133Z,14.53
2019-04-23T23:59:13.120Z,13.43
